Time;durP1;ratioP1;P1;durP2;ratioP2;P2;SDS_P1;SDS_P2;PMS_P1;PMS_P2;Temp;Humidity;BMP_temperature;BMP_pressure;BME280_temperature;BME280_humidity;BME280_pressure;Samples;Min_cycle;Max_cycle;Signal;HPM_P1;HPM_P2
2021/12/23 00:06:03;;;;;;;10.87;3.77;;;1.10;99.90;;;;;;20650357;28;20136;-43
2021/12/23 00:16:16;;;;;;;10.02;4.00;;;1.00;99.90;;;;;;20658401;28;20036;-43
2021/12/23 00:26:17;;;;;;;10.48;3.72;;;1.00;99.90;;;;;;20661481;28;20398;-43
2021/12/23 00:36:18;;;;;;;13.57;4.50;;;1.10;99.90;;;;;;20657314;28;20250;-43
2021/12/23 00:46:19;;;;;;;5.43;2.72;;;1.10;99.90;;;;;;20658947;28;20034;-43
2021/12/23 00:56:20;;;;;;;9.13;3.65;;;1.10;99.90;;;;;;20658299;28;20040;-43
2021/12/23 01:06:23;;;;;;;8.70;3.38;;;1.10;99.90;;;;;;20654951;28;20069;-43
2021/12/23 01:16:36;;;;;;;16.48;4.68;;;1.10;99.90;;;;;;20659842;28;20044;-43
2021/12/23 01:26:38;;;;;;;8.13;3.80;;;1.20;99.90;;;;;;20659704;28;20037;-43
2021/12/23 01:36:39;;;;;;;9.80;3.92;;;1.20;99.90;;;;;;20657427;28;20046;-43
2021/12/23 01:46:41;;;;;;;11.95;3.20;;;1.40;99.90;;;;;;20653952;28;20037;-43
2021/12/23 01:56:42;;;;;;;18.30;4.65;;;1.40;99.90;;;;;;20649632;28;20041;-43
2021/12/23 02:06:43;;;;;;;16.55;4.90;;;1.20;99.90;;;;;;20641660;28;20397;-43
2021/12/23 02:16:44;;;;;;;8.27;3.83;;;1.10;99.90;;;;;;20638094;28;20045;-43
2021/12/23 02:26:45;;;;;;;10.00;3.80;;;1.10;99.90;;;;;;20660354;28;20042;-43
2021/12/23 02:36:55;;;;;;;14.88;5.13;;;1.00;99.90;;;;;;20661363;28;20038;-43
2021/12/23 02:46:56;;;;;;;13.10;5.10;;;0.90;99.90;;;;;;20655794;28;20042;-43
2021/12/23 02:56:58;;;;;;;9.40;3.45;;;0.80;99.90;;;;;;20661846;28;20400;-43
2021/12/23 03:06:59;;;;;;;11.65;5.13;;;0.70;99.90;;;;;;20664688;28;20060;-43
2021/12/23 03:17:00;;;;;;;11.18;4.32;;;0.70;99.90;;;;;;20662892;28;20030;-43
2021/12/23 03:27:02;;;;;;;10.48;5.07;;;0.60;99.90;;;;;;20665456;28;20526;-43
2021/12/23 03:37:03;;;;;;;8.93;3.75;;;0.70;99.90;;;;;;20662926;28;20414;-43
2021/12/23 03:47:05;;;;;;;9.18;3.70;;;0.50;99.90;;;;;;20663564;28;20042;-43
2021/12/23 03:57:06;;;;;;;14.13;5.35;;;0.50;99.90;;;;;;20663947;28;20505;-43
2021/12/23 04:07:07;;;;;;;15.30;5.18;;;0.50;99.90;;;;;;20660329;28;20502;-44
2021/12/23 04:17:08;;;;;;;8.23;3.97;;;0.40;99.90;;;;;;20665331;28;20042;-43
2021/12/23 04:27:10;;;;;;;10.10;4.35;;;0.30;99.90;;;;;;20666420;28;20049;-43
2021/12/23 04:37:13;;;;;;;13.88;5.38;;;0.30;99.90;;;;;;20658167;28;20037;-43
2021/12/23 04:47:14;;;;;;;19.00;6.53;;;0.20;99.90;;;;;;20657634;28;20046;-44
2021/12/23 04:57:15;;;;;;;30.30;7.38;;;0.20;99.90;;;;;;20652562;28;20394;-43
2021/12/23 05:07:19;;;;;;;24.58;8.88;;;0.20;99.90;;;;;;20657744;28;20046;-43
2021/12/23 05:17:20;;;;;;;30.52;7.97;;;0.20;99.90;;;;;;20654724;28;20042;-43
2021/12/23 05:27:22;;;;;;;27.85;8.23;;;0.20;99.90;;;;;;20655242;28;20057;-43
2021/12/23 05:37:24;;;;;;;24.75;7.82;;;0.30;99.90;;;;;;20650335;28;20046;-44
2021/12/23 05:47:25;;;;;;;20.15;7.90;;;0.20;99.90;;;;;;20659131;28;20042;-43
2021/12/23 05:57:26;;;;;;;30.20;9.43;;;0.10;99.90;;;;;;20681314;28;20040;-43
2021/12/23 06:07:27;;;;;;;27.25;6.93;;;0.10;99.90;;;;;;20669071;28;20050;-43
2021/12/23 06:17:29;;;;;;;22.20;7.03;;;0.20;99.90;;;;;;20667220;28;20510;-43
2021/12/23 06:27:30;;;;;;;19.63;6.75;;;0.30;99.90;;;;;;20665157;28;20046;-43
2021/12/23 06:37:31;;;;;;;22.95;7.05;;;0.30;99.90;;;;;;20661054;28;20041;-43
2021/12/23 06:47:34;;;;;;;14.80;5.75;;;0.20;99.90;;;;;;20652750;28;20088;-43
2021/12/23 06:57:35;;;;;;;47.30;6.32;;;0.30;99.90;;;;;;20647880;28;20042;-44
2021/12/23 07:07:53;;;;;;;16.92;6.57;;;0.40;99.90;;;;;;20642214;28;20081;-43
2021/12/23 07:17:57;;;;;;;21.60;5.55;;;0.40;99.90;;;;;;20647987;28;20046;-44
2021/12/23 07:27:58;;;;;;;28.65;8.05;;;0.30;99.90;;;;;;20660751;28;20038;-43
2021/12/23 07:38:01;;;;;;;20.15;6.90;;;0.30;99.90;;;;;;20661106;28;20047;-44
2021/12/23 07:48:04;;;;;;;14.98;5.93;;;0.30;99.90;;;;;;20657231;28;20038;-43
2021/12/23 07:58:05;;;;;;;29.63;9.15;;;0.30;99.90;;;;;;20658695;28;20654;-43
2021/12/23 08:08:06;;;;;;;20.30;6.65;;;0.20;99.90;;;;;;20662149;28;20828;-43
2021/12/23 08:18:07;;;;;;;16.90;6.03;;;0.20;99.90;;;;;;20658944;28;20057;-43
2021/12/23 08:28:09;;;;;;;18.45;7.32;;;0.20;99.90;;;;;;20661058;28;20453;-43
2021/12/23 08:38:12;;;;;;;20.20;6.55;;;0.30;99.90;;;;;;20658764;28;20034;-43
2021/12/23 08:48:14;;;;;;;22.52;7.70;;;0.40;99.90;;;;;;20654995;28;20042;-43
2021/12/23 08:58:16;;;;;;;17.17;5.50;;;0.50;99.90;;;;;;20657017;28;20038;-43
2021/12/23 09:08:17;;;;;;;21.42;6.53;;;0.60;99.90;;;;;;20653534;28;20494;-43
2021/12/23 09:18:20;;;;;;;24.67;5.57;;;0.70;99.90;;;;;;20650499;28;20038;-43
2021/12/23 09:28:56;;;;;;;22.92;6.70;;;0.60;99.90;;;;;;20657923;28;20042;-44
2021/12/23 09:38:46;;;;;;;18.35;5.85;;;0.80;99.90;;;;;;20647937;28;20273;-43
2021/12/23 09:48:49;;;;;;;22.90;7.25;;;0.80;99.90;;;;;;20652066;28;20125;-44
2021/12/23 09:58:51;;;;;;;20.48;6.63;;;0.90;99.90;;;;;;20641178;28;20030;-43
2021/12/23 10:08:55;;;;;;;21.30;7.20;;;1.10;99.90;;;;;;20644067;28;20046;-43
2021/12/23 10:39:27;;;;;;;16.80;5.97;;;1.40;99.90;;;;;;20648749;28;20495;-43
2021/12/23 10:49:52;;;;;;;18.90;5.03;;;1.40;99.90;;;;;;20661662;28;20433;-43
2021/12/23 10:59:53;;;;;;;23.35;5.95;;;1.50;99.90;;;;;;20652732;28;20046;-43
2021/12/23 11:10:11;;;;;;;16.15;6.10;;;1.70;99.90;;;;;;20642645;28;21467;-44
2021/12/23 11:51:05;;;;;;;18.13;5.82;;;2.30;99.90;;;;;;20644962;28;20042;-43
2021/12/23 12:01:13;;;;;;;21.38;5.43;;;2.40;99.90;;;;;;20652542;28;20430;-44
2021/12/23 12:11:17;;;;;;;15.00;5.07;;;2.50;99.90;;;;;;20657021;28;20050;-43
2021/12/23 12:21:41;;;;;;;20.98;6.05;;;2.60;99.90;;;;;;20651414;28;20043;-44
2021/12/23 12:31:44;;;;;;;26.52;5.82;;;2.80;99.90;;;;;;20653746;28;20558;-44
2021/12/23 12:41:46;;;;;;;21.83;5.75;;;2.80;99.90;;;;;;20658288;28;20030;-44
2021/12/23 12:51:48;;;;;;;14.85;5.80;;;2.90;99.90;;;;;;20650669;28;20850;-44
2021/12/23 13:01:51;;;;;;;17.30;5.53;;;3.00;99.90;;;;;;20645394;28;20357;-43
2021/12/23 13:11:55;;;;;;;24.55;5.88;;;3.20;99.90;;;;;;20651771;28;20046;-44
2021/12/23 13:21:59;;;;;;;15.15;4.88;;;3.50;99.90;;;;;;20656456;28;20056;-44
2021/12/23 13:32:02;;;;;;;16.75;5.88;;;3.70;99.90;;;;;;20651117;28;20394;-43
2021/12/23 13:42:09;;;;;;;22.23;6.95;;;3.80;99.90;;;;;;20659678;28;20049;-44
2021/12/23 13:52:18;;;;;;;16.08;6.45;;;3.90;99.90;;;;;;20659590;28;20046;-44
2021/12/23 14:02:22;;;;;;;16.95;5.38;;;4.00;99.90;;;;;;20655058;28;20285;-44
2021/12/23 14:12:59;;;;;;;17.40;6.13;;;3.90;99.90;;;;;;20653932;28;20038;-44
2021/12/23 14:23:26;;;;;;;16.35;5.57;;;3.90;99.90;;;;;;20665087;28;20275;-44
2021/12/23 14:33:31;;;;;;;20.00;5.38;;;3.80;99.90;;;;;;20667346;28;20045;-44
2021/12/23 14:43:58;;;;;;;17.00;5.10;;;3.90;99.90;;;;;;20670730;28;20296;-44
2021/12/23 14:54:15;;;;;;;13.13;4.73;;;3.90;99.90;;;;;;20667008;28;21231;-44
2021/12/23 15:04:18;;;;;;;18.80;5.50;;;3.90;99.90;;;;;;20663367;28;20479;-44
2021/12/23 15:14:19;;;;;;;12.32;5.18;;;3.90;99.90;;;;;;20656126;28;20417;-44
2021/12/23 15:24:57;;;;;;;15.10;7.03;;;4.00;99.90;;;;;;20662569;28;20398;-44
2021/12/23 15:35:10;;;;;;;18.75;6.13;;;4.10;99.90;;;;;;20655533;28;21123;-44
2021/12/23 15:45:11;;;;;;;17.55;6.63;;;4.00;99.90;;;;;;20661737;28;20037;-44
2021/12/23 15:55:12;;;;;;;21.00;5.22;;;4.10;99.90;;;;;;20646798;28;20506;-44
2021/12/23 16:15:17;;;;;;;13.40;5.03;;;4.10;99.90;;;;;;20649049;28;20042;-44
2021/12/23 16:25:18;;;;;;;19.45;7.60;;;4.20;99.90;;;;;;20646149;28;20040;-44
2021/12/23 16:35:23;;;;;;;17.95;7.57;;;4.20;99.90;;;;;;20652672;28;20042;-44
2021/12/23 16:45:27;;;;;;;16.63;6.20;;;4.20;99.90;;;;;;20647976;28;20034;-43
2021/12/23 17:05:36;;;;;;;19.13;6.55;;;4.30;99.90;;;;;;20646261;28;20038;-44
2021/12/23 17:15:37;;;;;;;18.50;6.35;;;4.30;99.90;;;;;;20639581;28;20057;-44
2021/12/23 17:25:39;;;;;;;18.40;6.05;;;4.40;99.90;;;;;;20652208;28;20041;-44
2021/12/23 17:35:43;;;;;;;18.92;6.80;;;4.40;99.90;;;;;;20654706;28;20041;-43
2021/12/23 17:45:46;;;;;;;20.05;7.32;;;4.40;99.90;;;;;;20639438;28;20057;-44
2021/12/23 17:55:47;;;;;;;18.00;7.22;;;4.50;99.90;;;;;;20655231;28;20045;-44
2021/12/23 18:05:49;;;;;;;20.08;6.65;;;4.60;99.90;;;;;;20659603;28;20050;-44
2021/12/23 18:15:51;;;;;;;21.58;6.32;;;4.50;99.90;;;;;;20658924;28;20073;-44
2021/12/23 18:25:52;;;;;;;20.70;5.53;;;4.60;99.90;;;;;;20649874;28;20710;-43
2021/12/23 18:36:02;;;;;;;20.60;6.00;;;4.60;99.90;;;;;;20657447;28;20458;-44
2021/12/23 18:46:05;;;;;;;21.65;7.60;;;4.60;99.90;;;;;;20652715;28;20113;-44
2021/12/23 18:56:09;;;;;;;20.95;6.10;;;4.60;99.90;;;;;;20653419;28;20056;-43
2021/12/23 19:06:11;;;;;;;22.42;7.97;;;4.50;99.90;;;;;;20665692;28;20612;-43
2021/12/23 19:16:14;;;;;;;30.63;8.18;;;4.60;99.90;;;;;;20678931;28;20481;-44
2021/12/23 19:26:15;;;;;;;32.22;8.05;;;4.60;99.90;;;;;;20677137;28;20331;-43
2021/12/23 19:36:16;;;;;;;28.92;8.75;;;4.70;99.90;;;;;;20682959;28;20500;-44
2021/12/23 19:46:17;;;;;;;32.85;7.43;;;4.70;99.90;;;;;;20672146;28;20065;-45
2021/12/23 19:56:19;;;;;;;28.13;9.02;;;4.80;99.90;;;;;;20676363;28;20038;-44
2021/12/23 20:06:20;;;;;;;30.55;7.50;;;4.90;99.90;;;;;;20668377;28;20037;-44
2021/12/23 20:16:23;;;;;;;16.95;6.32;;;5.00;99.90;;;;;;20663516;28;20402;-44
2021/12/23 20:26:26;;;;;;;22.65;6.47;;;5.10;99.90;;;;;;20673857;28;20677;-44
2021/12/23 20:36:27;;;;;;;22.55;5.57;;;5.30;99.90;;;;;;20670905;28;20041;-43
2021/12/23 20:46:28;;;;;;;19.45;6.32;;;5.40;99.90;;;;;;20669274;28;20041;-43
2021/12/23 20:56:29;;;;;;;20.83;6.57;;;5.50;99.90;;;;;;20665435;28;20434;-44
2021/12/23 21:06:30;;;;;;;21.35;6.60;;;5.60;99.90;;;;;;20643616;28;20050;-44
2021/12/23 21:16:31;;;;;;;15.95;6.78;;;5.80;99.90;;;;;;20646484;28;20375;-44
2021/12/23 21:26:33;;;;;;;19.80;6.10;;;6.00;99.90;;;;;;20659694;28;21080;-43
2021/12/23 21:36:40;;;;;;;19.13;6.25;;;6.10;99.90;;;;;;20644344;28;20030;-43
2021/12/23 21:46:41;;;;;;;21.40;7.07;;;6.20;99.90;;;;;;20638132;28;20670;-44
2021/12/23 21:56:44;;;;;;;19.27;8.27;;;6.30;99.90;;;;;;20639308;28;20040;-43
2021/12/23 22:06:45;;;;;;;21.50;6.57;;;6.60;99.90;;;;;;20643828;28;20038;-44
2021/12/23 22:16:47;;;;;;;23.67;7.90;;;6.70;99.90;;;;;;20641968;28;20477;-44
2021/12/23 22:26:48;;;;;;;27.83;8.20;;;6.70;99.90;;;;;;20650273;28;20042;-44
2021/12/23 22:36:49;;;;;;;16.45;7.13;;;6.80;99.90;;;;;;20647784;28;20030;-44
2021/12/23 22:46:50;;;;;;;20.35;7.45;;;6.90;99.90;;;;;;20660645;28;20537;-43
2021/12/23 22:56:52;;;;;;;15.70;6.82;;;7.00;99.90;;;;;;20666186;28;20037;-44
2021/12/23 23:06:53;;;;;;;20.08;6.80;;;7.10;99.90;;;;;;20670760;28;20038;-44
2021/12/23 23:16:54;;;;;;;21.05;7.35;;;7.30;99.90;;;;;;20668792;28;20549;-44
2021/12/23 23:27:11;;;;;;;19.30;8.30;;;7.40;99.90;;;;;;20669945;28;20217;-44
2021/12/23 23:47:40;;;;;;;17.15;6.55;;;7.70;99.90;;;;;;20655874;28;20042;-44
2021/12/23 23:57:41;;;;;;;17.13;6.53;;;7.90;99.90;;;;;;20645162;28;20351;-44
